createdAt,value
2016-10-11T00:01:44.821Z,17.99
2016-10-11T00:06:44.468Z,18.01
2016-10-11T00:11:44.407Z,17.88
2016-10-11T00:16:44.658Z,17.88
2016-10-11T00:21:44.598Z,17.95
2016-10-11T00:26:44.554Z,17.98
2016-10-11T00:31:44.486Z,17.88
2016-10-11T00:36:44.126Z,17.87
2016-10-11T00:41:44.074Z,17.98
2016-10-11T00:46:44.323Z,17.86
2016-10-11T00:51:43.954Z,17.81
2016-10-11T00:56:44.209Z,17.79
2016-10-11T01:01:44.151Z,17.77
2016-10-11T01:06:43.790Z,17.69
2016-10-11T01:11:43.730Z,17.66
2016-10-11T01:16:43.981Z,17.65
2016-10-11T01:21:43.614Z,17.65
2016-10-11T01:26:43.864Z,17.63
2016-10-11T01:31:43.805Z,17.6
2016-10-11T01:36:43.748Z,17.54
2016-10-11T01:41:43.693Z,17.52
2016-10-11T01:46:43.643Z,17.57
2016-10-11T01:51:43.577Z,17.63
2016-10-11T01:56:43.533Z,17.58
2016-10-11T02:01:43.467Z,17.43
2016-10-11T02:06:43.406Z,17.47
2016-10-11T02:11:43.357Z,17.5
2016-10-11T02:16:43.289Z,17.46
2016-10-11T02:21:42.932Z,17.47
2016-10-11T02:26:43.171Z,17.42
2016-10-11T02:31:43.116Z,17.49
2016-10-11T02:36:42.753Z,17.42
2016-10-11T02:41:42.998Z,17.46
2016-10-11T02:46:42.944Z,17.39
2016-10-11T02:51:42.904Z,17.32
2016-10-11T02:56:42.834Z,17.36
2016-10-11T03:01:42.764Z,17.36
2016-10-11T03:06:42.406Z,17.3
2016-10-11T03:11:42.346Z,17.17
2016-10-11T03:16:42.588Z,17.25
2016-10-11T03:21:42.536Z,17.2
2016-10-11T03:26:42.168Z,17.12
2016-10-11T03:31:42.418Z,17.09
2016-10-11T03:36:42.364Z,17.09
2016-10-11T03:41:42.295Z,17.1
2016-10-11T03:46:41.929Z,16.99
2016-10-11T03:51:42.173Z,17.05
2016-10-11T03:56:42.117Z,17.05
2016-10-11T04:01:42.071Z,17.02
2016-10-11T04:06:41.991Z,17.05
2016-10-11T04:11:41.642Z,17.03
2016-10-11T04:16:41.872Z,16.95
2016-10-11T04:21:41.813Z,16.91
2016-10-11T04:26:41.750Z,17
2016-10-11T04:31:41.690Z,16.94
2016-10-11T04:36:41.632Z,16.97
2016-10-11T04:41:41.574Z,16.88
2016-10-11T04:46:41.516Z,17.03
2016-10-11T04:51:41.454Z,17.05
2016-10-11T04:56:41.392Z,17.27
2016-10-11T05:01:41.324Z,17.49
2016-10-11T05:06:41.273Z,17.54
2016-10-11T05:11:41.211Z,17.62
2016-10-11T05:16:41.160Z,17.74
2016-10-11T05:21:41.088Z,17.98
2016-10-11T05:26:41.047Z,17.92
2016-10-11T05:31:40.979Z,17.94
2016-10-11T05:36:40.612Z,17.98
2016-10-11T05:41:40.857Z,18.03
2016-10-11T05:46:40.797Z,18.02
2016-10-11T05:51:40.740Z,18.02
2016-10-11T05:56:40.389Z,18.1
2016-10-11T06:01:40.628Z,18.11
2016-10-11T06:06:40.259Z,18.14
2016-10-11T06:11:40.509Z,18.17
2016-10-11T06:16:40.448Z,18.13
2016-10-11T06:21:40.404Z,18.16
2016-10-11T06:26:40.336Z,18.05
2016-10-11T06:31:40.287Z,18.05
2016-10-11T06:36:40.220Z,17.96
2016-10-11T06:41:40.168Z,17.98
2016-10-11T06:46:40.112Z,17.98
2016-10-11T06:51:39.746Z,17.95
2016-10-11T06:56:39.994Z,17.98
2016-10-11T07:01:39.948Z,17.98
2016-10-11T07:06:39.582Z,17.96
2016-10-11T07:11:39.829Z,17.92
2016-10-11T07:16:39.767Z,17.94
2016-10-11T07:21:39.707Z,17.95
2016-10-11T07:26:39.651Z,17.96
2016-10-11T07:31:39.291Z,17.9
2016-10-11T07:36:39.245Z,17.99
2016-10-11T07:41:39.193Z,18.03
2016-10-11T07:46:39.421Z,18.05
2016-10-11T07:51:39.065Z,17.96
2016-10-11T07:56:39.009Z,17.99
2016-10-11T08:01:39.261Z,17.96
2016-10-11T08:06:39.199Z,17.94
2016-10-11T08:11:39.146Z,17.94
2016-10-11T08:16:39.092Z,18.01
2016-10-11T08:21:39.028Z,17.99
2016-10-11T08:26:38.970Z,17.99
2016-10-11T08:31:38.924Z,17.99
2016-10-11T08:36:38.860Z,18.02
2016-10-11T08:41:38.803Z,18.06
2016-10-11T08:46:38.748Z,18.03
2016-10-11T08:51:38.690Z,18.03
2016-10-11T08:56:38.626Z,18.08
2016-10-11T09:01:38.280Z,18.03
2016-10-11T09:06:38.214Z,17.98
2016-10-11T09:11:38.456Z,18.14
2016-10-11T09:16:38.399Z,18.08
2016-10-11T09:21:38.040Z,18.17
2016-10-11T09:26:38.292Z,18.17
2016-10-11T09:31:38.236Z,18.24
2016-10-11T09:36:38.171Z,18.21
2016-10-11T09:41:37.810Z,18.16
2016-10-11T09:46:38.066Z,18.13
2016-10-11T09:51:38.010Z,18.19
2016-10-11T09:56:37.947Z,18.17
2016-10-11T10:01:37.890Z,18.14
2016-10-11T10:06:37.532Z,18.14
2016-10-11T10:11:37.476Z,18.13
2016-10-11T10:16:37.419Z,18.2
2016-10-11T10:21:37.666Z,18.23
2016-10-11T10:26:37.606Z,18.23
2016-10-11T10:31:37.248Z,18.31
2016-10-11T10:36:37.503Z,18.24
2016-10-11T10:41:37.448Z,18.26
2016-10-11T10:46:37.080Z,18.31
2016-10-11T10:51:37.037Z,18.2
2016-10-11T10:56:37.280Z,18.27
2016-10-11T11:01:37.223Z,18.27
2016-10-11T11:06:36.870Z,18.35
2016-10-11T11:11:37.126Z,18.24
2016-10-11T11:16:37.064Z,18.26
2016-10-11T11:21:37.008Z,18.29
2016-10-11T11:26:36.646Z,18.38
2016-10-11T11:31:36.890Z,18.29
2016-10-11T11:36:36.230Z,18.34
2016-10-11T11:41:36.476Z,18.27
2016-10-11T11:46:36.730Z,18.38
2016-10-11T11:51:36.678Z,18.27
2016-10-11T11:56:36.626Z,18.42
2016-10-11T12:01:36.568Z,18.35
2016-10-11T12:06:36.516Z,18.45
2016-10-11T12:11:36.460Z,18.42
2016-10-11T12:16:36.407Z,18.42
2016-10-11T12:21:36.359Z,18.49
2016-10-11T12:26:36.298Z,18.35
2016-10-11T12:31:36.248Z,18.44
2016-10-11T12:36:35.881Z,18.42
2016-10-11T12:41:36.142Z,18.49
2016-10-11T12:46:35.775Z,18.39
2016-10-11T12:51:35.717Z,18.42
2016-10-11T12:56:35.969Z,18.53
2016-10-11T13:01:35.609Z,18.54
2016-10-11T13:06:35.857Z,18.53
2016-10-11T13:11:35.798Z,18.41
2016-10-11T13:16:35.743Z,18.57
2016-10-11T13:21:35.710Z,18.39
2016-10-11T13:26:35.327Z,18.41
2016-10-11T13:31:35.274Z,18.44
2016-10-11T13:36:35.524Z,18.44
2016-10-11T13:41:34.857Z,18.49
2016-10-11T13:46:35.412Z,18.44
2016-10-11T13:51:35.052Z,18.42
2016-10-11T13:56:35.002Z,18.39
2016-10-11T14:01:34.938Z,18.51
2016-10-11T14:06:35.186Z,18.61
2016-10-11T14:11:35.131Z,18.65
2016-10-11T14:16:34.778Z,18.54
2016-10-11T14:21:35.030Z,18.63
2016-10-11T14:26:34.984Z,18.57
2016-10-11T14:31:34.619Z,18.61
2016-10-11T14:36:34.893Z,18.65
2016-10-11T14:41:34.213Z,18.63
2016-10-11T14:46:34.475Z,18.59
2016-10-11T14:51:34.711Z,18.63
2016-10-11T14:56:34.349Z,18.66
2016-10-11T15:01:34.312Z,18.63
2016-10-11T15:06:34.238Z,18.6
2016-10-11T15:11:34.494Z,18.63
2016-10-11T15:16:34.447Z,18.53
2016-10-11T15:21:34.403Z,18.61
2016-10-11T15:26:34.349Z,18.63
2016-10-11T15:31:33.982Z,18.59
2016-10-11T15:36:33.622Z,18.59
2016-10-11T15:41:34.180Z,18.56
2016-10-11T15:46:33.830Z,18.74
2016-10-11T15:51:33.763Z,18.9
2016-10-11T15:56:34.030Z,19.19
2016-10-11T16:01:33.659Z,19.32
2016-10-11T16:06:33.913Z,19.47
2016-10-11T16:11:33.563Z,19.52
2016-10-11T16:16:33.197Z,19.5
2016-10-11T16:21:33.761Z,19.46
2016-10-11T16:26:33.401Z,19.49
2016-10-11T16:31:33.060Z,19.5
2016-10-11T16:36:33.609Z,19.45
2016-10-11T16:41:33.570Z,19.31
2016-10-11T16:46:33.201Z,19.38
2016-10-11T16:51:33.150Z,19.28
2016-10-11T16:56:33.405Z,19.32
2016-10-11T17:01:33.054Z,19.25
2016-10-11T17:06:33.012Z,19.25
2016-10-11T17:11:32.649Z,19.3
2016-10-11T17:16:33.212Z,19.27
2016-10-11T17:21:33.187Z,19.23
2016-10-11T17:26:32.805Z,19.27
2016-10-11T17:31:33.071Z,19.24
2016-10-11T17:36:33.012Z,19.27
2016-10-11T17:41:32.962Z,19.24
2016-10-11T17:46:32.912Z,19.17
2016-10-11T17:51:32.558Z,19.23
2016-10-11T17:56:32.809Z,19.27
2016-10-11T18:01:32.152Z,19.34
2016-10-11T18:06:32.401Z,19.37
2016-10-11T18:11:32.663Z,19.38
2016-10-11T18:16:32.325Z,19.49
2016-10-11T18:21:32.571Z,19.46
2016-10-11T18:26:32.515Z,19.46
2016-10-11T18:31:32.473Z,19.52
2016-10-11T18:36:32.415Z,19.56
2016-10-11T18:41:32.068Z,19.6
2016-10-11T18:46:32.321Z,19.6
2016-10-11T18:51:31.969Z,19.52
2016-10-11T18:56:32.230Z,19.55
2016-10-11T19:01:32.177Z,19.57
2016-10-11T19:06:32.126Z,19.56
2016-10-11T19:11:32.080Z,19.45
2016-10-11T19:16:32.024Z,19.57
2016-10-11T19:21:31.677Z,19.55
2016-10-11T19:26:31.934Z,19.47
2016-10-11T19:31:31.885Z,19.49
2016-10-11T19:36:31.532Z,19.67
2016-10-11T19:41:31.794Z,19.7
2016-10-11T19:46:31.438Z,19.85
2016-10-11T19:51:31.384Z,19.87
2016-10-11T19:56:31.348Z,19.97
2016-10-11T20:01:31.592Z,20.1
2016-10-11T20:06:31.545Z,20.02
2016-10-11T20:11:31.499Z,20.07
2016-10-11T20:16:31.449Z,19.93
2016-10-11T20:21:31.103Z,20.01
2016-10-11T20:26:31.369Z,19.98
2016-10-11T20:31:31.007Z,19.86
2016-10-11T20:36:31.265Z,19.93
2016-10-11T20:41:31.234Z,19.93
2016-10-11T20:46:31.184Z,19.98
2016-10-11T20:51:31.129Z,20.04
2016-10-11T20:56:30.775Z,19.98
2016-10-11T21:01:31.037Z,19.97
2016-10-11T21:06:30.378Z,19.95
2016-10-11T21:11:30.948Z,19.83
2016-10-11T21:16:30.892Z,19.86
2016-10-11T21:21:30.853Z,19.86
2016-10-11T21:26:30.797Z,19.74
2016-10-11T21:31:30.749Z,19.75
2016-10-11T21:36:30.397Z,19.71
2016-10-11T21:41:30.351Z,19.68
2016-10-11T21:46:30.300Z,19.67
2016-10-11T21:51:30.248Z,19.52
2016-10-11T21:56:30.508Z,19.47
2016-10-11T22:01:30.456Z,19.35
2016-10-11T22:06:30.418Z,19.24
2016-10-11T22:11:30.360Z,19.27
2016-10-11T22:16:30.325Z,19.27
2016-10-11T22:21:30.257Z,19.2
2016-10-11T22:26:30.214Z,19.16
2016-10-11T22:31:30.170Z,19.1
2016-10-11T22:36:30.101Z,18.97
2016-10-11T22:41:30.059Z,18.96
2016-10-11T22:46:30.005Z,19
2016-10-11T22:51:29.944Z,18.89
2016-10-11T22:56:29.905Z,18.89
2016-10-11T23:01:29.859Z,18.79
2016-10-11T23:06:29.492Z,18.79
2016-10-11T23:11:29.438Z,18.74
2016-10-11T23:16:29.696Z,18.81
2016-10-11T23:21:29.640Z,18.78
2016-10-11T23:26:29.584Z,18.65
2016-10-11T23:31:29.530Z,18.56
2016-10-11T23:36:29.476Z,18.6
2016-10-11T23:41:29.424Z,18.59
2016-10-11T23:46:29.391Z,18.56
2016-10-11T23:51:29.320Z,18.45
2016-10-11T23:56:29.265Z,18.45
